Meteo Giornale » Osservazioni meteo Italia » Torino-Caselle

ore: 16:50 - Osservazioni Meteo Torino-Caselle
Lat. 45° 13' N Lon. 7° 39' E Alt. 301 metri s.l.m.

nuvoloso Europe/Rome

6 °C

Nuvoloso

Temp. 24 Ore

-4 °C

9 °C

Nord

3.7 Km/h

Dew point -6 °C

Umidità 41 %

Visibilità  10 Km

Il sole sorge alle ore 07:57

Il sole tramonta alle ore 17:24

Data e Ora Cielo e Fenomeni T °C DP °C Um. % Pres. hPa Vis. km Vento km/h
Oggi h: 16:50 nuvoloso Nuvoloso 6 -6 41 1026 10 N 3.7
Oggi h: 16:20 nuvoloso Nuvoloso 7 -6 38 1026 10 N 5.5
Oggi h: 15:50 poco_nuvoloso Poco Nuvoloso 8 -7 33 1026 10 N 1.8
Oggi h: 15:20 sereno Sereno 9 -6 33 1026 10 N 3.7
Oggi h: 14:50 sereno Sereno 8 -6 36 1026 10 N 5.5
Oggi h: 14:20 sereno Sereno 8 -6 36 1027 10 E/SE 7.4
Oggi h: 13:50 sereno Sereno 8 -5 39 1027 10 N 5.5
Oggi h: 13:20 sereno Sereno 7 -5 42 1027 10 E/SE 7.4
Oggi h: 12:50 sereno Sereno 7 -6 38 1028 10 N 5.5
Oggi h: 12:20 sereno Sereno 7 -5 42 1028 10 N 3.7
Oggi h: 11:50 sereno Sereno 6 -4 48 1029 10 N 3.7
Oggi h: 11:20 sereno Sereno 3 -4 59 1029 10 N 1.8
Oggi h: 10:50 sereno Sereno 4 -2 64 1029 10 N 1.8
Oggi h: 10:20 sereno Sereno 1 -6 59 1029 10 N 3.7
Oggi h: 09:50 sereno Sereno 0 -6 63 1029 10 N 5.5
Oggi h: 09:20 sereno Sereno -0 -7 59 1029 10 N 5.5
Oggi h: 08:50 sereno Sereno -1 -7 63 1028 10 N 5.5
Oggi h: 08:20 sereno Sereno -3 -7 73 1028 10 O/NO 9.3
Oggi h: 07:50 sereno Sereno -3 -8 68 1028 10 N 5.5
Oggi h: 07:20 sereno Sereno -4 -7 79 1028 10 N 3.7
Oggi h: 06:50 sereno Sereno -2 -7 68 1028 10 N 3.7
Oggi h: 06:20 sereno Sereno -2 -7 68 1028 10 N 1.8
Oggi h: 05:50 sereno Sereno -2 -7 68 1028 10 NO 7.4
Oggi h: 05:20 sereno Sereno -2 -7 68 1028 10 N 3.7
Oggi h: 04:50 sereno Sereno -2 -7 68 1028 10 N 3.7
Oggi h: 04:20 sereno Sereno -4 -7 79 1028 10 N 5.5
Oggi h: 03:50 sereno Sereno -4 -8 73 1028 10 N/NO 7.4
Oggi h: 03:20 sereno Sereno -2 -6 73 1028 10 O/NO 11.1
Oggi h: 02:50 sereno Sereno -1 -6 68 1028 10 N 5.5
Oggi h: 02:20 sereno Sereno -2 -6 73 1028 10 N/NO 7.4
Oggi h: 01:50 sereno Sereno -1 -6 68 1028 10 N 5.5
Oggi h: 01:20 sereno Sereno -1 -6 68 1029 10 N 3.7
Oggi h: 00:50 sereno Sereno -1 -6 68 1029 10 N 3.7
Oggi h: 00:20 sereno Sereno -1 -6 68 1029 10 N 1.8
Ieri h: 23:50 sereno Sereno -1 -7 63 1029 10 N 5.5
Ieri h: 23:20 sereno Sereno -0 -6 63 1029 10 O/NO 9.3
Ieri h: 22:50 sereno Sereno 1 -6 59 1029 10 O/NO 13
Ieri h: 22:20 sereno Sereno -1 -6 68 1029 10 O/NO 9.3
Ieri h: 21:50 sereno Sereno 1 -5 64 1029 10 O/NO 9.3
Ieri h: 21:20 sereno Sereno 0 -6 63 1029 10 O/NO 9.3
Ieri h: 20:50 sereno Sereno 1 -6 59 1029 10 O/NO 9.3
Ieri h: 20:20 sereno Sereno 1 -5 64 1029 10 O/NO 7.4
Ieri h: 19:50 sereno Sereno 1 -5 64 1029 10 O/NO 9.3
Ieri h: 19:20 sereno Sereno 2 -6 55 1029 10 NO 7.4
Ieri h: 18:50 sereno Sereno 1 -6 59 1028 10 N 5.5
Ieri h: 18:20 sereno Sereno 4 -6 47 1028 10 N 3.7
Ieri h: 17:50 sereno Sereno 4 -6 47 1028 10 N 5.5
Ieri h: 17:20 sereno Sereno 5 -6 44 1028 10 N 3.7
Ieri h: 16:50 sereno Sereno 6 -6 41 1028 10 N 1.8